createdAt,value
2019-03-13T00:01:04.684Z,19.98
2019-03-13T00:03:35.785Z,20.88
2019-03-13T00:06:07.346Z,23.15
2019-03-13T00:08:38.759Z,20.80
2019-03-13T00:11:11.028Z,24.20
2019-03-13T00:13:42.247Z,21.73
2019-03-13T00:16:13.767Z,22.37
2019-03-13T00:18:44.998Z,20.92
2019-03-13T00:21:16.845Z,23.27
2019-03-13T00:23:48.502Z,24.60
2019-03-13T00:26:19.948Z,21.73
2019-03-13T00:28:52.320Z,23.90
2019-03-13T00:31:23.571Z,26.57
2019-03-13T00:33:55.530Z,31.07
2019-03-13T00:36:26.614Z,34.73
2019-03-13T00:38:57.891Z,32.38
2019-03-13T00:41:29.329Z,34.10
2019-03-13T00:44:00.671Z,29.30
2019-03-13T00:46:31.987Z,36.63
2019-03-13T00:49:03.429Z,33.67
2019-03-13T00:51:36.952Z,32.53
2019-03-13T00:54:08.582Z,33.80
2019-03-13T00:56:39.822Z,36.30
2019-03-13T00:59:11.015Z,37.00
2019-03-13T01:01:52.630Z,48.02
2019-03-13T01:04:28.625Z,46.58
2019-03-13T01:07:01.301Z,51.33
2019-03-13T01:09:32.488Z,64.95
2019-03-13T01:12:04.102Z,76.28
2019-03-13T01:14:36.268Z,98.05
2019-03-13T01:17:08.338Z,110.12
2019-03-13T01:19:40.734Z,112.37
2019-03-13T01:22:12.301Z,93.80
2019-03-13T01:24:43.716Z,77.42
2019-03-13T01:27:15.283Z,72.60
2019-03-13T01:29:47.958Z,67.17
2019-03-13T01:32:36.102Z,63.98
2019-03-13T01:35:15.133Z,85.75
2019-03-13T01:37:46.622Z,95.72
2019-03-13T01:40:18.135Z,80.77
2019-03-13T01:42:49.244Z,50.10
2019-03-13T01:45:20.728Z,37.38
2019-03-13T01:47:52.183Z,32.83
2019-03-13T01:50:23.735Z,32.70
2019-03-13T01:52:55.118Z,34.25
2019-03-13T01:55:26.637Z,40.67
2019-03-13T01:57:58.033Z,43.80
2019-03-13T02:00:29.340Z,45.28
2019-03-13T02:03:00.406Z,33.53
2019-03-13T02:05:31.737Z,33.13
2019-03-13T02:08:03.189Z,27.85
2019-03-13T02:10:34.647Z,29.30
2019-03-13T02:13:06.364Z,29.18
2019-03-13T02:15:37.644Z,27.48
2019-03-13T02:18:08.956Z,26.70
2019-03-13T02:20:40.173Z,27.73
2019-03-13T02:23:11.567Z,28.60
2019-03-13T02:25:42.833Z,28.45
2019-03-13T02:28:15.326Z,27.55
2019-03-13T02:30:47.886Z,31.45
2019-03-13T02:33:19.029Z,30.43
2019-03-13T02:35:50.176Z,34.35
2019-03-13T02:38:21.543Z,32.30
2019-03-13T02:40:52.776Z,34.13
2019-03-13T02:43:24.249Z,33.55
2019-03-13T02:45:55.529Z,32.63
2019-03-13T02:48:26.860Z,33.63
2019-03-13T02:50:57.991Z,36.95
2019-03-13T02:53:29.367Z,34.60
2019-03-13T02:56:00.677Z,36.58
2019-03-13T02:58:32.137Z,35.43
2019-03-13T03:01:14.845Z,31.85
2019-03-13T03:03:51.035Z,35.33
2019-03-13T03:06:22.346Z,32.55
2019-03-13T03:08:53.464Z,33.28
2019-03-13T03:11:24.740Z,36.70
2019-03-13T03:13:56.064Z,35.83
2019-03-13T03:16:27.402Z,39.88
2019-03-13T03:18:58.894Z,37.10
2019-03-13T03:21:30.403Z,34.63
2019-03-13T03:24:01.964Z,31.52
2019-03-13T03:26:33.254Z,40.55
2019-03-13T03:29:04.495Z,31.35
2019-03-13T03:31:36.775Z,36.53
2019-03-13T03:34:08.216Z,37.30
2019-03-13T03:36:39.466Z,34.38
2019-03-13T03:39:10.595Z,29.52
2019-03-13T03:41:42.018Z,43.28
2019-03-13T03:44:13.412Z,55.08
2019-03-13T03:46:44.709Z,54.98
2019-03-13T03:49:16.357Z,58.08
2019-03-13T03:51:47.986Z,51.18
2019-03-13T03:54:19.427Z,46.58
2019-03-13T03:56:50.939Z,44.60
2019-03-13T03:59:22.125Z,38.55
2019-03-13T04:01:54.296Z,28.07
2019-03-13T04:04:25.538Z,31.50
2019-03-13T04:06:56.785Z,32.38
2019-03-13T04:09:28.144Z,28.50
2019-03-13T04:11:59.533Z,28.23
2019-03-13T04:14:30.957Z,32.08
2019-03-13T04:17:02.188Z,28.55
2019-03-13T04:19:33.540Z,29.85
2019-03-13T04:22:04.686Z,27.48
2019-03-13T04:24:36.392Z,47.95
2019-03-13T04:27:07.748Z,53.15
2019-03-13T04:29:39.118Z,64.12
2019-03-13T04:32:11.725Z,72.53
2019-03-13T04:34:43.184Z,47.40
2019-03-13T04:37:14.625Z,55.05
2019-03-13T04:39:45.969Z,79.95
2019-03-13T04:42:17.186Z,86.05
2019-03-13T04:44:48.870Z,92.25
2019-03-13T04:47:20.529Z,90.65
2019-03-13T04:49:51.719Z,105.83
2019-03-13T04:52:23.094Z,47.85
2019-03-13T04:54:54.548Z,51.25
2019-03-13T04:57:26.363Z,37.80
2019-03-13T04:59:57.639Z,37.53
2019-03-13T05:02:29.209Z,40.90
2019-03-13T05:05:01.723Z,38.78
2019-03-13T05:07:33.166Z,32.83
2019-03-13T05:10:07.870Z,30.37
2019-03-13T05:12:39.149Z,34.58
2019-03-13T05:15:12.072Z,24.87
2019-03-13T05:17:43.771Z,19.52
2019-03-13T05:20:15.267Z,20.57
2019-03-13T05:22:46.901Z,24.57
2019-03-13T05:25:19.475Z,21.52
2019-03-13T05:27:50.684Z,19.75
2019-03-13T05:30:23.866Z,24.57
2019-03-13T05:32:56.091Z,22.10
2019-03-13T05:35:27.420Z,15.20
2019-03-13T05:37:59.109Z,17.27
2019-03-13T05:40:30.491Z,21.25
2019-03-13T05:43:01.931Z,20.23
2019-03-13T05:45:33.049Z,25.95
2019-03-13T05:48:04.292Z,27.10
2019-03-13T05:50:35.744Z,32.08
2019-03-13T05:53:07.194Z,26.85
2019-03-13T05:55:38.745Z,23.92
2019-03-13T05:58:10.916Z,20.12
2019-03-13T06:00:43.191Z,27.17
2019-03-13T06:03:14.360Z,26.42
2019-03-13T06:05:45.490Z,25.55
2019-03-13T06:08:18.522Z,24.43
2019-03-13T06:10:49.617Z,23.02
2019-03-13T06:13:20.775Z,21.77
2019-03-13T06:15:52.123Z,20.82
2019-03-13T06:18:26.899Z,21.68
2019-03-13T06:20:58.187Z,20.37
2019-03-13T06:23:29.527Z,16.35
2019-03-13T06:26:00.885Z,18.00
2019-03-13T06:28:32.355Z,19.30
2019-03-13T06:31:03.857Z,20.92
2019-03-13T06:33:35.732Z,16.45
2019-03-13T06:36:08.258Z,18.92
2019-03-13T06:38:39.673Z,13.45
2019-03-13T06:41:11.123Z,15.23
2019-03-13T06:43:42.109Z,16.87
2019-03-13T06:46:13.728Z,16.00
2019-03-13T06:48:44.986Z,15.63
2019-03-13T06:51:17.699Z,16.55
2019-03-13T06:53:48.900Z,16.85
2019-03-13T06:56:20.362Z,16.00
2019-03-13T06:58:53.441Z,13.93
2019-03-13T07:01:44.670Z,18.07
2019-03-13T07:04:29.829Z,18.62
2019-03-13T07:07:05.174Z,14.80
2019-03-13T07:09:39.683Z,15.68
2019-03-13T07:12:29.381Z,14.15
2019-03-13T07:15:05.246Z,20.43
2019-03-13T07:17:38.421Z,15.80
2019-03-13T07:20:15.454Z,14.20
2019-03-13T07:22:51.346Z,16.65
2019-03-13T07:25:32.089Z,18.90
2019-03-13T07:28:08.411Z,11.88
2019-03-13T07:30:44.925Z,11.28
2019-03-13T07:33:21.400Z,14.93
2019-03-13T07:36:05.242Z,11.88
2019-03-13T07:38:38.146Z,13.08
2019-03-13T07:41:29.190Z,12.30
2019-03-13T07:44:19.780Z,16.48
2019-03-13T07:46:55.484Z,13.85
2019-03-13T07:49:34.743Z,15.55
2019-03-13T07:52:22.886Z,10.23
2019-03-13T07:55:01.433Z,11.45
2019-03-13T07:57:49.579Z,9.05
2019-03-13T08:00:28.273Z,8.65
2019-03-13T08:03:13.481Z,27.50
2019-03-13T08:05:49.234Z,26.68
2019-03-13T08:08:38.615Z,19.87
2019-03-13T08:11:14.262Z,16.00
2019-03-13T08:13:47.870Z,10.78
2019-03-13T08:16:35.090Z,10.58
2019-03-13T08:19:10.447Z,9.40
2019-03-13T08:21:56.712Z,11.57
2019-03-13T08:24:35.955Z,9.88
2019-03-13T08:27:23.905Z,14.65
2019-03-13T08:30:09.469Z,15.83
2019-03-13T08:32:43.277Z,17.95
2019-03-13T08:35:36.292Z,23.65
2019-03-13T08:38:26.438Z,43.98
2019-03-13T08:41:12.950Z,10.48
2019-03-13T08:44:03.070Z,37.63
2019-03-13T08:46:43.861Z,17.55
2019-03-13T08:49:20.982Z,13.20
2019-03-13T08:51:59.697Z,15.18
2019-03-13T08:54:48.095Z,12.03
2019-03-13T08:57:26.996Z,7.25
2019-03-13T08:59:59.938Z,9.45
2019-03-13T09:02:49.439Z,13.45
2019-03-13T09:05:22.701Z,7.25
2019-03-13T09:07:59.728Z,10.30
2019-03-13T09:10:51.709Z,4.17
2019-03-13T09:13:34.371Z,7.47
2019-03-13T09:16:08.012Z,6.53
2019-03-13T09:18:44.030Z,5.92
2019-03-13T09:21:21.044Z,14.30
2019-03-13T09:24:00.532Z,12.98
2019-03-13T09:26:39.175Z,11.65
2019-03-13T09:29:15.777Z,16.62
2019-03-13T09:31:51.594Z,9.90
2019-03-13T09:34:25.549Z,11.25
2019-03-13T09:37:01.163Z,7.97
2019-03-13T09:39:38.818Z,9.13
2019-03-13T09:42:11.757Z,5.35
2019-03-13T09:45:02.863Z,7.03
2019-03-13T09:47:57.385Z,9.48
2019-03-13T09:50:42.064Z,8.53
2019-03-13T09:53:15.938Z,11.38
2019-03-13T09:56:05.192Z,10.48
2019-03-13T09:58:42.884Z,16.05
2019-03-13T10:01:27.973Z,11.95
2019-03-13T10:04:04.724Z,10.80
2019-03-13T10:06:43.265Z,10.18
2019-03-13T10:09:33.404Z,8.90
2019-03-13T10:12:12.281Z,11.00
2019-03-13T10:14:45.268Z,9.10
2019-03-13T10:17:26.879Z,12.58
2019-03-13T10:20:08.935Z,10.93
2019-03-13T10:22:55.068Z,9.90
2019-03-13T10:25:43.801Z,8.88
2019-03-13T10:28:16.558Z,17.12
2019-03-13T10:30:52.124Z,8.60
2019-03-13T10:33:27.992Z,11.75
2019-03-13T10:36:04.367Z,14.35
2019-03-13T10:38:39.003Z,22.70
2019-03-13T10:41:30.337Z,8.87
2019-03-13T10:44:20.303Z,6.37
2019-03-13T10:47:05.525Z,11.60
2019-03-13T10:49:44.013Z,13.68
2019-03-13T10:52:16.976Z,7.78
2019-03-13T10:55:08.045Z,4.62
2019-03-13T10:57:40.793Z,5.30
2019-03-13T11:00:34.042Z,4.85
2019-03-13T11:03:18.368Z,8.53
2019-03-13T11:06:00.709Z,12.85
2019-03-13T11:08:39.080Z,12.43
2019-03-13T11:11:11.992Z,15.32
2019-03-13T11:13:59.325Z,14.90
2019-03-13T11:16:48.786Z,14.07
2019-03-13T11:19:21.705Z,10.45
2019-03-13T11:21:54.399Z,10.35
2019-03-13T11:24:34.075Z,8.78
2019-03-13T11:27:12.947Z,7.33
2019-03-13T11:30:02.046Z,6.35
2019-03-13T11:32:35.205Z,8.13
2019-03-13T11:35:14.531Z,7.17
2019-03-13T11:37:47.281Z,6.45
2019-03-13T11:40:23.211Z,7.53
2019-03-13T11:42:58.932Z,8.00
2019-03-13T11:45:49.968Z,13.72
2019-03-13T11:48:39.509Z,10.30
2019-03-13T11:51:29.713Z,7.87
2019-03-13T11:54:02.994Z,7.97
2019-03-13T11:56:45.317Z,11.28
2019-03-13T11:59:34.220Z,7.95
2019-03-13T12:02:19.148Z,10.98
2019-03-13T12:04:57.637Z,8.18
2019-03-13T12:07:31.025Z,8.75
2019-03-13T12:10:19.898Z,9.28
2019-03-13T12:12:55.646Z,7.37
2019-03-13T12:15:31.286Z,9.20
2019-03-13T12:18:04.755Z,6.35
2019-03-13T12:20:59.352Z,7.78
2019-03-13T12:23:43.861Z,7.78
2019-03-13T12:26:34.777Z,8.20
2019-03-13T12:29:22.295Z,14.98
2019-03-13T12:32:01.223Z,8.68
2019-03-13T12:34:42.951Z,7.30
2019-03-13T12:37:30.971Z,6.20
2019-03-13T12:40:20.141Z,7.10
2019-03-13T12:43:05.089Z,5.20
2019-03-13T12:45:47.257Z,7.17
2019-03-13T12:48:38.204Z,5.42
2019-03-13T12:51:13.715Z,5.53
2019-03-13T12:53:55.667Z,10.58
2019-03-13T12:56:31.511Z,7.80
2019-03-13T12:59:20.772Z,9.85
2019-03-13T13:01:59.504Z,9.40
2019-03-13T13:04:38.101Z,5.08
2019-03-13T13:07:13.578Z,4.75
2019-03-13T13:09:46.437Z,8.18
2019-03-13T13:12:38.470Z,6.70
2019-03-13T13:15:27.347Z,11.57
2019-03-13T13:18:06.995Z,7.67
2019-03-13T13:20:40.285Z,4.92
2019-03-13T13:23:11.734Z,9.37
2019-03-13T13:25:43.801Z,11.12
2019-03-13T13:28:19.940Z,10.80
2019-03-13T13:30:53.204Z,8.03
2019-03-13T13:33:24.675Z,7.47
2019-03-13T13:35:56.040Z,5.08
2019-03-13T13:38:27.456Z,4.10
2019-03-13T13:40:58.822Z,7.60
2019-03-13T13:43:32.422Z,8.43
2019-03-13T13:46:15.183Z,5.73
2019-03-13T13:48:46.637Z,8.10
2019-03-13T13:51:18.037Z,14.95
2019-03-13T13:53:49.955Z,7.55
2019-03-13T13:56:21.694Z,7.62
2019-03-13T13:58:53.083Z,9.40
2019-03-13T14:01:24.204Z,9.05
2019-03-13T14:03:56.532Z,9.30
2019-03-13T14:06:29.189Z,12.10
2019-03-13T14:09:00.639Z,9.40
2019-03-13T14:11:33.345Z,7.22
2019-03-13T14:14:09.044Z,8.80
2019-03-13T14:16:40.720Z,6.95
2019-03-13T14:19:11.814Z,10.90
2019-03-13T14:21:42.864Z,15.18
2019-03-13T14:24:17.251Z,15.28
2019-03-13T14:26:47.900Z,12.85
2019-03-13T14:29:20.631Z,9.98
2019-03-13T14:31:55.439Z,13.05
2019-03-13T14:34:27.628Z,12.25
2019-03-13T14:36:58.829Z,13.88
2019-03-13T14:39:30.327Z,12.10
2019-03-13T14:42:02.457Z,12.82
2019-03-13T14:44:33.602Z,12.58
2019-03-13T14:47:05.971Z,11.43
2019-03-13T14:49:37.476Z,10.72
2019-03-13T14:52:08.696Z,18.55
2019-03-13T14:54:40.876Z,14.87
2019-03-13T14:57:12.235Z,11.03
2019-03-13T14:59:44.542Z,11.10
2019-03-13T15:02:15.665Z,13.40
2019-03-13T15:04:47.099Z,16.02
2019-03-13T15:07:18.243Z,12.98
2019-03-13T15:09:51.429Z,14.43
2019-03-13T15:12:22.846Z,13.05
2019-03-13T15:14:54.226Z,13.72
2019-03-13T15:17:25.787Z,14.80
2019-03-13T15:19:58.828Z,14.75
2019-03-13T15:22:32.736Z,14.78
2019-03-13T15:25:07.002Z,14.65
2019-03-13T15:27:38.426Z,19.32
2019-03-13T15:30:21.790Z,12.45
2019-03-13T15:32:53.169Z,20.52
2019-03-13T15:35:24.467Z,21.23
2019-03-13T15:37:55.665Z,22.93
2019-03-13T15:40:27.103Z,24.15
2019-03-13T15:42:58.338Z,27.80
2019-03-13T15:45:33.983Z,26.42
2019-03-13T15:48:06.474Z,28.15
2019-03-13T15:50:37.751Z,22.55
2019-03-13T15:53:09.118Z,26.75
2019-03-13T15:55:40.393Z,28.87
2019-03-13T15:58:11.728Z,23.15
2019-03-13T16:00:49.985Z,22.87
2019-03-13T16:03:24.330Z,27.25
2019-03-13T16:05:55.646Z,27.35
2019-03-13T16:08:26.943Z,32.50
2019-03-13T16:10:58.415Z,39.20
2019-03-13T16:13:29.562Z,43.35
2019-03-13T16:16:04.046Z,42.58
2019-03-13T16:18:36.347Z,38.15
2019-03-13T16:21:07.586Z,28.80
2019-03-13T16:23:38.834Z,35.75
2019-03-13T16:26:10.218Z,24.43
2019-03-13T16:28:42.009Z,23.07
2019-03-13T16:31:13.135Z,26.33
2019-03-13T16:33:44.787Z,91.82
2019-03-13T16:36:16.053Z,30.43
2019-03-13T16:38:47.401Z,30.77
2019-03-13T16:41:19.789Z,26.95
2019-03-13T16:43:51.861Z,32.33
2019-03-13T16:46:23.118Z,29.02
2019-03-13T16:48:55.836Z,40.80
2019-03-13T16:51:27.001Z,37.25
2019-03-13T16:54:00.403Z,27.98
2019-03-13T16:56:33.915Z,35.48
2019-03-13T16:59:05.354Z,37.50
2019-03-13T17:01:36.599Z,40.30
2019-03-13T17:04:08.009Z,43.35
2019-03-13T17:06:39.550Z,42.35
2019-03-13T17:09:11.588Z,48.20
2019-03-13T17:11:44.324Z,43.80
2019-03-13T17:14:15.641Z,49.53
2019-03-13T17:16:46.813Z,56.30
2019-03-13T17:19:17.928Z,52.43
2019-03-13T17:21:52.013Z,51.88
2019-03-13T17:24:23.335Z,45.73
2019-03-13T17:26:54.690Z,46.05
2019-03-13T17:29:25.983Z,46.92
2019-03-13T17:31:57.142Z,56.13
2019-03-13T17:34:33.285Z,52.75
2019-03-13T17:37:04.654Z,55.58
2019-03-13T17:39:36.257Z,56.10
2019-03-13T17:42:09.914Z,48.33
2019-03-13T17:44:41.314Z,63.68
2019-03-13T17:47:12.718Z,96.60
2019-03-13T17:49:44.979Z,95.87
2019-03-13T17:52:16.640Z,60.88
2019-03-13T17:54:48.029Z,57.95
2019-03-13T17:57:19.288Z,61.13
2019-03-13T17:59:50.802Z,57.35
2019-03-13T18:02:25.882Z,63.87
2019-03-13T18:04:58.527Z,58.30
2019-03-13T18:07:30.013Z,61.88
2019-03-13T18:10:01.239Z,56.28
2019-03-13T18:12:32.451Z,55.40
2019-03-13T18:15:05.024Z,57.62
2019-03-13T18:17:36.663Z,53.45
2019-03-13T18:20:13.521Z,73.28
2019-03-13T18:22:44.871Z,169.00
2019-03-13T18:25:18.409Z,66.40
2019-03-13T18:27:51.265Z,53.60
2019-03-13T18:30:24.350Z,54.73
2019-03-13T18:32:59.085Z,48.20
2019-03-13T18:35:30.572Z,59.93
2019-03-13T18:38:01.880Z,54.75
2019-03-13T18:40:33.435Z,53.15
2019-03-13T18:43:05.095Z,57.25
2019-03-13T18:45:37.504Z,52.75
2019-03-13T18:48:09.029Z,62.38
2019-03-13T18:50:41.199Z,71.20
2019-03-13T18:53:12.708Z,99.35
2019-03-13T18:55:44.061Z,82.60
2019-03-13T18:58:16.467Z,89.13
2019-03-13T19:00:48.040Z,78.33
2019-03-13T19:03:19.170Z,90.20
2019-03-13T19:05:50.341Z,94.05
2019-03-13T19:08:21.464Z,112.72
2019-03-13T19:10:52.934Z,85.67
2019-03-13T19:13:25.877Z,108.52
2019-03-13T19:15:57.030Z,90.85
2019-03-13T19:18:29.595Z,96.97
2019-03-13T19:21:02.744Z,90.22
2019-03-13T19:23:35.955Z,98.03
2019-03-13T19:26:07.695Z,93.65
2019-03-13T19:28:40.132Z,112.28
2019-03-13T19:31:11.702Z,102.80
2019-03-13T19:33:43.526Z,96.47
2019-03-13T19:36:14.908Z,112.70
2019-03-13T19:38:46.204Z,118.85
2019-03-13T19:41:17.713Z,103.80
2019-03-13T19:43:50.301Z,109.55
2019-03-13T19:46:21.677Z,106.72
2019-03-13T19:48:53.219Z,115.70
2019-03-13T19:51:25.770Z,109.65
2019-03-13T19:53:57.190Z,113.40
2019-03-13T19:56:28.880Z,105.03
2019-03-13T19:59:01.451Z,118.87
2019-03-13T20:01:32.916Z,113.85
2019-03-13T20:04:05.584Z,128.95
2019-03-13T20:06:42.337Z,136.18
2019-03-13T20:11:41.464Z,129.57
2019-03-13T20:14:12.920Z,107.58
2019-03-13T20:16:46.718Z,115.12
2019-03-13T20:19:18.390Z,108.50
2019-03-13T20:21:49.898Z,118.15
2019-03-13T20:24:21.373Z,127.27
2019-03-13T20:26:52.860Z,129.45
2019-03-13T20:29:24.194Z,127.85
2019-03-13T20:31:55.437Z,131.45
2019-03-13T20:34:26.991Z,124.12
2019-03-13T20:36:58.807Z,116.17
2019-03-13T20:39:30.897Z,127.27
2019-03-13T20:42:03.714Z,116.20
2019-03-13T20:44:35.372Z,120.28
2019-03-13T20:47:06.761Z,132.85
2019-03-13T20:49:38.667Z,164.82
2019-03-13T20:52:10.814Z,178.35
2019-03-13T20:54:42.322Z,172.32
2019-03-13T20:57:13.934Z,171.90
2019-03-13T20:59:45.403Z,180.27
2019-03-13T21:02:17.125Z,159.18
2019-03-13T21:04:48.347Z,135.35
2019-03-13T21:07:19.867Z,167.00
2019-03-13T21:09:51.326Z,150.15
2019-03-13T21:12:23.124Z,153.07
2019-03-13T21:14:55.498Z,155.57
2019-03-13T21:17:28.441Z,142.05
2019-03-13T21:19:59.643Z,142.18
2019-03-13T21:22:31.094Z,142.68
2019-03-13T21:25:02.606Z,146.53
2019-03-13T21:27:34.859Z,140.90
2019-03-13T21:30:15.039Z,129.05
2019-03-13T21:32:47.079Z,129.75
2019-03-13T21:35:18.445Z,134.55
2019-03-13T21:37:49.800Z,114.62
2019-03-13T21:40:26.255Z,136.28
2019-03-13T21:42:57.529Z,123.80
2019-03-13T21:45:40.534Z,113.25
2019-03-13T21:48:02.099Z,126.40
2019-03-13T21:50:33.497Z,109.95
2019-03-13T21:53:06.005Z,114.82
2019-03-13T21:55:39.688Z,117.00
2019-03-13T21:58:11.126Z,112.20
2019-03-13T22:00:43.774Z,111.95
2019-03-13T22:03:27.575Z,103.87
2019-03-13T22:05:48.242Z,104.43
2019-03-13T22:08:19.412Z,110.05
2019-03-13T22:10:55.086Z,101.25
2019-03-13T22:13:30.595Z,101.90
2019-03-13T22:16:03.169Z,107.78
2019-03-13T22:18:34.735Z,105.72
2019-03-13T22:21:06.077Z,114.75
2019-03-13T22:23:37.419Z,101.70
2019-03-13T22:26:08.846Z,114.17
2019-03-13T22:28:40.328Z,121.15
2019-03-13T22:31:11.499Z,119.10
2019-03-13T22:33:43.034Z,124.15
2019-03-13T22:36:14.340Z,143.43
2019-03-13T22:38:45.993Z,119.75
2019-03-13T22:41:17.678Z,128.50
2019-03-13T22:43:48.794Z,125.67
2019-03-13T22:46:20.048Z,149.18
2019-03-13T22:48:58.061Z,132.75
2019-03-13T22:51:24.512Z,142.03
2019-03-13T22:53:57.914Z,137.82
2019-03-13T22:56:29.260Z,114.05
2019-03-13T22:59:00.714Z,125.35
2019-03-13T23:01:32.015Z,108.12
2019-03-13T23:04:03.397Z,120.67
2019-03-13T23:06:36.515Z,111.70
2019-03-13T23:09:11.642Z,125.82
2019-03-13T23:14:13.302Z,110.52
2019-03-13T23:16:44.394Z,116.77
2019-03-13T23:19:17.430Z,122.37
2019-03-13T23:21:48.903Z,114.72
2019-03-13T23:24:20.151Z,105.05
2019-03-13T23:26:51.410Z,107.22
2019-03-13T23:29:22.846Z,116.93
2019-03-13T23:31:54.084Z,132.12
2019-03-13T23:34:25.240Z,123.82
2019-03-13T23:36:56.829Z,124.50
2019-03-13T23:39:28.147Z,137.05
2019-03-13T23:41:59.426Z,116.50
2019-03-13T23:44:30.748Z,122.40
2019-03-13T23:47:01.986Z,107.83
2019-03-13T23:49:33.239Z,105.12
2019-03-13T23:52:04.440Z,107.85
2019-03-13T23:54:36.764Z,105.92
2019-03-13T23:57:08.421Z,121.20
2019-03-13T23:59:39.597Z,118.77
